sensor_id;sensor_type;location;lat;lon;timestamp;P1;durP1;ratioP1;P2;durP2;ratioP2
30247;SDS011;17063;50.892;4.702;2023-02-15T00:02:03;46.53;;;21.70;;
30247;SDS011;17063;50.892;4.702;2023-02-15T00:04:30;47.43;;;22.23;;
30247;SDS011;17063;50.892;4.702;2023-02-15T00:07:23;45.73;;;23.30;;
30247;SDS011;17063;50.892;4.702;2023-02-15T00:09:50;42.80;;;21.60;;
30247;SDS011;17063;50.892;4.702;2023-02-15T00:12:17;45.27;;;21.50;;
30247;SDS011;17063;50.892;4.702;2023-02-15T00:14:44;48.07;;;21.13;;
30247;SDS011;17063;50.892;4.702;2023-02-15T00:17:11;47.90;;;22.47;;
30247;SDS011;17063;50.892;4.702;2023-02-15T00:19:38;49.53;;;22.83;;
30247;SDS011;17063;50.892;4.702;2023-02-15T00:22:06;51.67;;;23.17;;
30247;SDS011;17063;50.892;4.702;2023-02-15T00:24:33;42.47;;;21.50;;
30247;SDS011;17063;50.892;4.702;2023-02-15T00:27:00;48.43;;;22.50;;
30247;SDS011;17063;50.892;4.702;2023-02-15T00:29:27;53.70;;;22.97;;
30247;SDS011;17063;50.892;4.702;2023-02-15T00:31:54;48.60;;;22.43;;
30247;SDS011;17063;50.892;4.702;2023-02-15T00:34:23;45.83;;;21.03;;
30247;SDS011;17063;50.892;4.702;2023-02-15T00:36:52;47.80;;;22.87;;
30247;SDS011;17063;50.892;4.702;2023-02-15T00:39:19;46.20;;;21.93;;
30247;SDS011;17063;50.892;4.702;2023-02-15T00:41:47;42.53;;;21.30;;
30247;SDS011;17063;50.892;4.702;2023-02-15T00:44:14;46.70;;;21.83;;
30247;SDS011;17063;50.892;4.702;2023-02-15T00:46:41;49.20;;;22.07;;
30247;SDS011;17063;50.892;4.702;2023-02-15T00:49:08;49.87;;;22.53;;
30247;SDS011;17063;50.892;4.702;2023-02-15T00:51:36;45.30;;;21.20;;
30247;SDS011;17063;50.892;4.702;2023-02-15T00:54:05;47.67;;;21.73;;
30247;SDS011;17063;50.892;4.702;2023-02-15T00:56:32;45.27;;;21.00;;
30247;SDS011;17063;50.892;4.702;2023-02-15T00:58:59;47.10;;;22.67;;
30247;SDS011;17063;50.892;4.702;2023-02-15T01:01:26;45.53;;;20.93;;
30247;SDS011;17063;50.892;4.702;2023-02-15T01:03:53;42.63;;;20.80;;
30247;SDS011;17063;50.892;4.702;2023-02-15T01:06:21;46.07;;;21.17;;
30247;SDS011;17063;50.892;4.702;2023-02-15T01:08:48;47.73;;;21.30;;
30247;SDS011;17063;50.892;4.702;2023-02-15T01:11:17;42.53;;;20.23;;
30247;SDS011;17063;50.892;4.702;2023-02-15T01:13:50;44.37;;;20.37;;
30247;SDS011;17063;50.892;4.702;2023-02-15T01:16:19;43.60;;;20.67;;
30247;SDS011;17063;50.892;4.702;2023-02-15T01:18:46;44.43;;;20.83;;
30247;SDS011;17063;50.892;4.702;2023-02-15T01:21:15;43.93;;;20.20;;
30247;SDS011;17063;50.892;4.702;2023-02-15T01:23:44;38.70;;;19.03;;
30247;SDS011;17063;50.892;4.702;2023-02-15T01:26:11;43.53;;;19.60;;
30247;SDS011;17063;50.892;4.702;2023-02-15T01:28:39;39.83;;;19.53;;
30247;SDS011;17063;50.892;4.702;2023-02-15T01:31:09;42.83;;;20.33;;
30247;SDS011;17063;50.892;4.702;2023-02-15T01:33:39;46.57;;;19.67;;
30247;SDS011;17063;50.892;4.702;2023-02-15T01:36:08;41.83;;;20.17;;
30247;SDS011;17063;50.892;4.702;2023-02-15T01:38:37;40.27;;;19.00;;
30247;SDS011;17063;50.892;4.702;2023-02-15T01:41:06;42.60;;;19.33;;
30247;SDS011;17063;50.892;4.702;2023-02-15T01:43:55;43.50;;;19.37;;
30247;SDS011;17063;50.892;4.702;2023-02-15T01:49:03;43.73;;;20.43;;
30247;SDS011;17063;50.892;4.702;2023-02-15T01:51:35;41.67;;;19.33;;
30247;SDS011;17063;50.892;4.702;2023-02-15T01:54:11;40.50;;;20.00;;
30247;SDS011;17063;50.892;4.702;2023-02-15T01:56:44;47.37;;;19.93;;
30247;SDS011;17063;50.892;4.702;2023-02-15T01:59:13;42.23;;;18.63;;
30247;SDS011;17063;50.892;4.702;2023-02-15T02:01:43;43.53;;;21.17;;
30247;SDS011;17063;50.892;4.702;2023-02-15T02:04:15;38.67;;;19.00;;
30247;SDS011;17063;50.892;4.702;2023-02-15T02:06:45;47.63;;;20.27;;
30247;SDS011;17063;50.892;4.702;2023-02-15T02:09:13;42.97;;;19.43;;
30247;SDS011;17063;50.892;4.702;2023-02-15T02:11:40;42.23;;;19.60;;
30247;SDS011;17063;50.892;4.702;2023-02-15T02:14:11;45.03;;;19.63;;
30247;SDS011;17063;50.892;4.702;2023-02-15T02:24:59;49.53;;;21.13;;
30247;SDS011;17063;50.892;4.702;2023-02-15T02:27:37;48.30;;;20.63;;
30247;SDS011;17063;50.892;4.702;2023-02-15T02:35:37;42.77;;;20.77;;
30247;SDS011;17063;50.892;4.702;2023-02-15T02:38:10;47.07;;;21.23;;
30247;SDS011;17063;50.892;4.702;2023-02-15T02:43:39;40.80;;;18.77;;
30247;SDS011;17063;50.892;4.702;2023-02-15T02:46:22;44.80;;;20.17;;
30247;SDS011;17063;50.892;4.702;2023-02-15T02:48:54;43.72;;;19.88;;
30247;SDS011;17063;50.892;4.702;2023-02-15T02:51:21;47.93;;;20.80;;
30247;SDS011;17063;50.892;4.702;2023-02-15T02:53:51;41.70;;;20.87;;
30247;SDS011;17063;50.892;4.702;2023-02-15T02:59:00;43.87;;;19.77;;
30247;SDS011;17063;50.892;4.702;2023-02-15T03:01:43;39.00;;;20.20;;
30247;SDS011;17063;50.892;4.702;2023-02-15T03:04:14;47.47;;;21.00;;
30247;SDS011;17063;50.892;4.702;2023-02-15T03:06:54;40.97;;;20.50;;
30247;SDS011;17063;50.892;4.702;2023-02-15T03:09:25;49.10;;;20.80;;
30247;SDS011;17063;50.892;4.702;2023-02-15T03:12:17;43.47;;;20.93;;
30247;SDS011;17063;50.892;4.702;2023-02-15T03:14:51;43.07;;;20.37;;
30247;SDS011;17063;50.892;4.702;2023-02-15T03:17:23;37.23;;;19.23;;
30247;SDS011;17063;50.892;4.702;2023-02-15T03:19:53;39.80;;;19.93;;
30247;SDS011;17063;50.892;4.702;2023-02-15T03:22:45;44.30;;;19.80;;
30247;SDS011;17063;50.892;4.702;2023-02-15T03:25:21;40.37;;;18.93;;
30247;SDS011;17063;50.892;4.702;2023-02-15T03:28:01;46.63;;;20.27;;
30247;SDS011;17063;50.892;4.702;2023-02-15T03:30:30;41.17;;;20.67;;
30247;SDS011;17063;50.892;4.702;2023-02-15T03:32:58;42.40;;;20.23;;
30247;SDS011;17063;50.892;4.702;2023-02-15T03:35:29;46.65;;;20.80;;
30247;SDS011;17063;50.892;4.702;2023-02-15T03:38:00;41.78;;;19.52;;
30247;SDS011;17063;50.892;4.702;2023-02-15T03:40:34;45.60;;;20.83;;
30247;SDS011;17063;50.892;4.702;2023-02-15T03:43:44;43.77;;;19.63;;
30247;SDS011;17063;50.892;4.702;2023-02-15T03:48:55;43.87;;;19.27;;
30247;SDS011;17063;50.892;4.702;2023-02-15T03:51:44;40.92;;;18.77;;
30247;SDS011;17063;50.892;4.702;2023-02-15T03:54:21;39.57;;;19.87;;
30247;SDS011;17063;50.892;4.702;2023-02-15T03:57:10;43.30;;;20.02;;
30247;SDS011;17063;50.892;4.702;2023-02-15T04:05:43;38.45;;;18.15;;
30247;SDS011;17063;50.892;4.702;2023-02-15T04:08:11;40.15;;;18.90;;
30247;SDS011;17063;50.892;4.702;2023-02-15T04:10:38;42.55;;;19.13;;
30247;SDS011;17063;50.892;4.702;2023-02-15T04:13:29;49.78;;;19.35;;
30247;SDS011;17063;50.892;4.702;2023-02-15T04:15:57;38.08;;;19.00;;
30247;SDS011;17063;50.892;4.702;2023-02-15T04:18:34;43.30;;;19.73;;
30247;SDS011;17063;50.892;4.702;2023-02-15T04:21:27;41.42;;;18.77;;
30247;SDS011;17063;50.892;4.702;2023-02-15T04:24:14;41.78;;;19.13;;
30247;SDS011;17063;50.892;4.702;2023-02-15T04:27:00;38.35;;;18.23;;
30247;SDS011;17063;50.892;4.702;2023-02-15T04:29:27;42.90;;;19.08;;
30247;SDS011;17063;50.892;4.702;2023-02-15T04:31:55;44.87;;;19.17;;
30247;SDS011;17063;50.892;4.702;2023-02-15T04:34:24;41.30;;;18.73;;
30247;SDS011;17063;50.892;4.702;2023-02-15T04:36:51;40.22;;;19.38;;
30247;SDS011;17063;50.892;4.702;2023-02-15T04:39:18;45.72;;;18.25;;
30247;SDS011;17063;50.892;4.702;2023-02-15T04:41:45;45.35;;;19.88;;
30247;SDS011;17063;50.892;4.702;2023-02-15T04:44:14;44.33;;;18.98;;
30247;SDS011;17063;50.892;4.702;2023-02-15T04:46:41;37.05;;;18.17;;
30247;SDS011;17063;50.892;4.702;2023-02-15T04:49:09;51.38;;;19.42;;
30247;SDS011;17063;50.892;4.702;2023-02-15T04:51:36;37.42;;;18.35;;
30247;SDS011;17063;50.892;4.702;2023-02-15T04:54:03;44.00;;;18.83;;
30247;SDS011;17063;50.892;4.702;2023-02-15T04:56:31;44.75;;;19.55;;
30247;SDS011;17063;50.892;4.702;2023-02-15T04:58:59;39.70;;;18.60;;
30247;SDS011;17063;50.892;4.702;2023-02-15T05:01:27;47.17;;;19.20;;
30247;SDS011;17063;50.892;4.702;2023-02-15T05:03:54;37.78;;;18.38;;
30247;SDS011;17063;50.892;4.702;2023-02-15T05:06:21;40.45;;;18.30;;
30247;SDS011;17063;50.892;4.702;2023-02-15T05:08:48;43.88;;;19.10;;
30247;SDS011;17063;50.892;4.702;2023-02-15T05:11:15;38.30;;;18.33;;
30247;SDS011;17063;50.892;4.702;2023-02-15T05:13:42;46.30;;;20.13;;
30247;SDS011;17063;50.892;4.702;2023-02-15T05:16:09;40.80;;;18.35;;
30247;SDS011;17063;50.892;4.702;2023-02-15T05:18:36;37.00;;;18.23;;
30247;SDS011;17063;50.892;4.702;2023-02-15T05:21:02;37.05;;;18.10;;
30247;SDS011;17063;50.892;4.702;2023-02-15T05:23:29;38.53;;;18.95;;
30247;SDS011;17063;50.892;4.702;2023-02-15T05:25:56;39.63;;;17.92;;
30247;SDS011;17063;50.892;4.702;2023-02-15T05:28:42;42.17;;;18.85;;
30247;SDS011;17063;50.892;4.702;2023-02-15T05:31:16;38.97;;;19.92;;
30247;SDS011;17063;50.892;4.702;2023-02-15T05:33:44;37.35;;;18.02;;
30247;SDS011;17063;50.892;4.702;2023-02-15T05:36:11;39.35;;;18.73;;
30247;SDS011;17063;50.892;4.702;2023-02-15T05:38:38;40.75;;;18.77;;
30247;SDS011;17063;50.892;4.702;2023-02-15T05:41:06;38.88;;;19.42;;
30247;SDS011;17063;50.892;4.702;2023-02-15T05:43:33;43.00;;;19.70;;
30247;SDS011;17063;50.892;4.702;2023-02-15T05:46:00;43.78;;;18.52;;
30247;SDS011;17063;50.892;4.702;2023-02-15T05:48:28;43.97;;;19.60;;
30247;SDS011;17063;50.892;4.702;2023-02-15T05:50:57;38.30;;;17.85;;
30247;SDS011;17063;50.892;4.702;2023-02-15T05:53:31;42.35;;;19.35;;
30247;SDS011;17063;50.892;4.702;2023-02-15T05:56:00;41.45;;;19.73;;
30247;SDS011;17063;50.892;4.702;2023-02-15T05:58:31;42.58;;;19.42;;
30247;SDS011;17063;50.892;4.702;2023-02-15T06:01:11;41.90;;;17.88;;
30247;SDS011;17063;50.892;4.702;2023-02-15T06:03:40;39.83;;;18.38;;
30247;SDS011;17063;50.892;4.702;2023-02-15T06:06:07;45.05;;;18.55;;
30247;SDS011;17063;50.892;4.702;2023-02-15T06:08:35;46.28;;;19.70;;
30247;SDS011;17063;50.892;4.702;2023-02-15T06:11:03;37.53;;;18.60;;
30247;SDS011;17063;50.892;4.702;2023-02-15T06:13:31;44.90;;;18.95;;
30247;SDS011;17063;50.892;4.702;2023-02-15T06:16:02;37.50;;;18.63;;
30247;SDS011;17063;50.892;4.702;2023-02-15T06:18:30;42.83;;;18.13;;
30247;SDS011;17063;50.892;4.702;2023-02-15T06:20:57;37.72;;;17.95;;
30247;SDS011;17063;50.892;4.702;2023-02-15T06:23:24;45.90;;;19.52;;
30247;SDS011;17063;50.892;4.702;2023-02-15T06:25:51;42.08;;;18.83;;
30247;SDS011;17063;50.892;4.702;2023-02-15T06:28:18;38.60;;;18.85;;
30247;SDS011;17063;50.892;4.702;2023-02-15T06:30:48;50.95;;;19.15;;
30247;SDS011;17063;50.892;4.702;2023-02-15T06:33:15;44.80;;;19.27;;
30247;SDS011;17063;50.892;4.702;2023-02-15T06:35:42;43.45;;;19.10;;
30247;SDS011;17063;50.892;4.702;2023-02-15T06:38:09;43.40;;;19.40;;
30247;SDS011;17063;50.892;4.702;2023-02-15T06:40:36;40.50;;;18.50;;
30247;SDS011;17063;50.892;4.702;2023-02-15T06:43:03;44.10;;;18.42;;
30247;SDS011;17063;50.892;4.702;2023-02-15T06:45:30;39.33;;;18.92;;
30247;SDS011;17063;50.892;4.702;2023-02-15T06:47:57;42.42;;;18.65;;
30247;SDS011;17063;50.892;4.702;2023-02-15T06:50:28;42.00;;;18.17;;
30247;SDS011;17063;50.892;4.702;2023-02-15T06:52:56;45.65;;;19.08;;
30247;SDS011;17063;50.892;4.702;2023-02-15T06:55:23;42.10;;;19.45;;
30247;SDS011;17063;50.892;4.702;2023-02-15T06:57:51;46.50;;;20.00;;
30247;SDS011;17063;50.892;4.702;2023-02-15T07:00:18;41.83;;;18.27;;
30247;SDS011;17063;50.892;4.702;2023-02-15T07:02:57;42.47;;;19.50;;
30247;SDS011;17063;50.892;4.702;2023-02-15T07:05:28;45.08;;;19.27;;
30247;SDS011;17063;50.892;4.702;2023-02-15T07:07:58;42.83;;;19.67;;
30247;SDS011;17063;50.892;4.702;2023-02-15T07:10:26;45.05;;;19.63;;
30247;SDS011;17063;50.892;4.702;2023-02-15T07:12:53;48.17;;;18.55;;
30247;SDS011;17063;50.892;4.702;2023-02-15T07:15:20;48.72;;;19.30;;
30247;SDS011;17063;50.892;4.702;2023-02-15T07:17:48;44.92;;;19.80;;
30247;SDS011;17063;50.892;4.702;2023-02-15T07:20:17;39.38;;;18.85;;
30247;SDS011;17063;50.892;4.702;2023-02-15T07:22:48;41.00;;;18.52;;
30247;SDS011;17063;50.892;4.702;2023-02-15T07:25:15;46.35;;;18.00;;
30247;SDS011;17063;50.892;4.702;2023-02-15T07:27:43;44.55;;;19.95;;
30247;SDS011;17063;50.892;4.702;2023-02-15T07:30:12;45.78;;;19.45;;
30247;SDS011;17063;50.892;4.702;2023-02-15T07:32:41;49.25;;;20.00;;
30247;SDS011;17063;50.892;4.702;2023-02-15T07:35:30;44.15;;;19.25;;
30247;SDS011;17063;50.892;4.702;2023-02-15T07:37:58;46.42;;;19.60;;
30247;SDS011;17063;50.892;4.702;2023-02-15T07:40:26;41.45;;;18.67;;
30247;SDS011;17063;50.892;4.702;2023-02-15T07:42:53;46.85;;;19.55;;
30247;SDS011;17063;50.892;4.702;2023-02-15T07:45:21;46.42;;;20.05;;
30247;SDS011;17063;50.892;4.702;2023-02-15T07:47:48;45.55;;;19.48;;
30247;SDS011;17063;50.892;4.702;2023-02-15T07:50:15;41.55;;;19.45;;
30247;SDS011;17063;50.892;4.702;2023-02-15T07:52:42;45.35;;;19.33;;
30247;SDS011;17063;50.892;4.702;2023-02-15T07:55:09;43.00;;;18.92;;
30247;SDS011;17063;50.892;4.702;2023-02-15T07:57:43;49.63;;;19.73;;
30247;SDS011;17063;50.892;4.702;2023-02-15T08:00:11;42.10;;;18.05;;
30247;SDS011;17063;50.892;4.702;2023-02-15T08:02:39;48.35;;;19.75;;
30247;SDS011;17063;50.892;4.702;2023-02-15T08:05:06;50.28;;;19.50;;
30247;SDS011;17063;50.892;4.702;2023-02-15T08:07:33;39.88;;;19.33;;
30247;SDS011;17063;50.892;4.702;2023-02-15T08:10:00;41.75;;;18.52;;
30247;SDS011;17063;50.892;4.702;2023-02-15T08:12:27;44.22;;;18.83;;
30247;SDS011;17063;50.892;4.702;2023-02-15T08:14:54;42.75;;;18.40;;
30247;SDS011;17063;50.892;4.702;2023-02-15T08:17:21;42.57;;;18.03;;
30247;SDS011;17063;50.892;4.702;2023-02-15T08:19:48;38.70;;;17.83;;
30247;SDS011;17063;50.892;4.702;2023-02-15T08:22:15;36.03;;;17.27;;
30247;SDS011;17063;50.892;4.702;2023-02-15T08:24:42;44.30;;;16.77;;
30247;SDS011;17063;50.892;4.702;2023-02-15T08:27:09;48.83;;;18.03;;
30247;SDS011;17063;50.892;4.702;2023-02-15T08:29:38;44.00;;;18.00;;
30247;SDS011;17063;50.892;4.702;2023-02-15T08:32:06;35.93;;;16.97;;
30247;SDS011;17063;50.892;4.702;2023-02-15T08:34:38;37.77;;;17.80;;
30247;SDS011;17063;50.892;4.702;2023-02-15T08:37:08;38.23;;;16.77;;
30247;SDS011;17063;50.892;4.702;2023-02-15T08:39:35;42.80;;;18.57;;
30247;SDS011;17063;50.892;4.702;2023-02-15T08:42:03;43.40;;;18.57;;
30247;SDS011;17063;50.892;4.702;2023-02-15T08:44:30;37.10;;;17.53;;
30247;SDS011;17063;50.892;4.702;2023-02-15T08:46:57;37.03;;;17.23;;
30247;SDS011;17063;50.892;4.702;2023-02-15T08:49:30;37.40;;;18.33;;
30247;SDS011;17063;50.892;4.702;2023-02-15T08:51:57;44.33;;;18.10;;
30247;SDS011;17063;50.892;4.702;2023-02-15T08:54:24;37.37;;;18.50;;
30247;SDS011;17063;50.892;4.702;2023-02-15T08:56:51;47.90;;;18.37;;
30247;SDS011;17063;50.892;4.702;2023-02-15T08:59:21;41.47;;;18.43;;
30247;SDS011;17063;50.892;4.702;2023-02-15T09:01:50;42.10;;;17.70;;
30247;SDS011;17063;50.892;4.702;2023-02-15T09:04:18;49.13;;;19.73;;
30247;SDS011;17063;50.892;4.702;2023-02-15T09:06:46;43.80;;;20.00;;
30247;SDS011;17063;50.892;4.702;2023-02-15T09:09:15;48.30;;;20.00;;
30247;SDS011;17063;50.892;4.702;2023-02-15T09:11:43;50.20;;;19.23;;
30247;SDS011;17063;50.892;4.702;2023-02-15T09:14:12;52.70;;;19.63;;
30247;SDS011;17063;50.892;4.702;2023-02-15T09:16:42;48.63;;;19.70;;
30247;SDS011;17063;50.892;4.702;2023-02-15T09:19:12;43.20;;;19.07;;
30247;SDS011;17063;50.892;4.702;2023-02-15T09:21:40;40.00;;;19.50;;
30247;SDS011;17063;50.892;4.702;2023-02-15T09:24:08;45.67;;;21.17;;
30247;SDS011;17063;50.892;4.702;2023-02-15T09:26:37;45.57;;;20.80;;
30247;SDS011;17063;50.892;4.702;2023-02-15T09:29:09;46.53;;;20.60;;
30247;SDS011;17063;50.892;4.702;2023-02-15T09:31:38;43.20;;;19.97;;
30247;SDS011;17063;50.892;4.702;2023-02-15T09:34:08;37.90;;;20.10;;
30247;SDS011;17063;50.892;4.702;2023-02-15T09:36:36;42.27;;;19.87;;
30247;SDS011;17063;50.892;4.702;2023-02-15T09:44:38;44.57;;;19.10;;
30247;SDS011;17063;50.892;4.702;2023-02-15T09:47:49;39.03;;;19.10;;
30247;SDS011;17063;50.892;4.702;2023-02-15T09:55:53;34.37;;;18.70;;
30247;SDS011;17063;50.892;4.702;2023-02-15T10:01:23;40.43;;;18.77;;
30247;SDS011;17063;50.892;4.702;2023-02-15T10:09:33;37.13;;;19.23;;
30247;SDS011;17063;50.892;4.702;2023-02-15T10:20:34;40.70;;;17.73;;
30247;SDS011;17063;50.892;4.702;2023-02-15T10:26:00;38.90;;;18.20;;
30247;SDS011;17063;50.892;4.702;2023-02-15T10:28:50;40.80;;;17.20;;
30247;SDS011;17063;50.892;4.702;2023-02-15T10:31:23;37.73;;;16.70;;
30247;SDS011;17063;50.892;4.702;2023-02-15T10:48:21;34.87;;;16.03;;
30247;SDS011;17063;50.892;4.702;2023-02-15T10:50:52;32.53;;;15.93;;
30247;SDS011;17063;50.892;4.702;2023-02-15T10:59:34;35.73;;;16.30;;
30247;SDS011;17063;50.892;4.702;2023-02-15T11:01:54;37.50;;;16.40;;
30247;SDS011;17063;50.892;4.702;2023-02-15T11:07:33;34.83;;;15.27;;
30247;SDS011;17063;50.892;4.702;2023-02-15T11:12:57;33.27;;;16.03;;
30247;SDS011;17063;50.892;4.702;2023-02-15T11:15:30;33.27;;;16.10;;
30247;SDS011;17063;50.892;4.702;2023-02-15T11:18:06;31.70;;;15.43;;
30247;SDS011;17063;50.892;4.702;2023-02-15T11:23:43;29.00;;;15.37;;
30247;SDS011;17063;50.892;4.702;2023-02-15T11:26:53;33.47;;;15.57;;
30247;SDS011;17063;50.892;4.702;2023-02-15T11:30:05;37.13;;;15.47;;
30247;SDS011;17063;50.892;4.702;2023-02-15T11:32:42;32.37;;;16.33;;
30247;SDS011;17063;50.892;4.702;2023-02-15T11:40:19;30.57;;;15.77;;
30247;SDS011;17063;50.892;4.702;2023-02-15T11:43:03;38.03;;;16.20;;
30247;SDS011;17063;50.892;4.702;2023-02-15T11:45:33;32.63;;;16.20;;
30247;SDS011;17063;50.892;4.702;2023-02-15T11:48:08;34.20;;;15.10;;
30247;SDS011;17063;50.892;4.702;2023-02-15T11:50:39;33.80;;;15.53;;
30247;SDS011;17063;50.892;4.702;2023-02-15T11:53:16;38.20;;;15.13;;
30247;SDS011;17063;50.892;4.702;2023-02-15T11:56:30;36.80;;;16.13;;
30247;SDS011;17063;50.892;4.702;2023-02-15T11:59:21;37.23;;;15.47;;
30247;SDS011;17063;50.892;4.702;2023-02-15T12:02:17;33.50;;;16.27;;
30247;SDS011;17063;50.892;4.702;2023-02-15T12:04:49;37.57;;;16.03;;
30247;SDS011;17063;50.892;4.702;2023-02-15T12:07:46;40.67;;;16.30;;
30247;SDS011;17063;50.892;4.702;2023-02-15T12:13:09;36.70;;;16.63;;
30247;SDS011;17063;50.892;4.702;2023-02-15T12:15:36;32.23;;;16.90;;
30247;SDS011;17063;50.892;4.702;2023-02-15T12:18:04;36.97;;;16.20;;
30247;SDS011;17063;50.892;4.702;2023-02-15T12:23:55;33.47;;;15.90;;
30247;SDS011;17063;50.892;4.702;2023-02-15T12:29:43;33.33;;;16.17;;
30247;SDS011;17063;50.892;4.702;2023-02-15T12:33:13;34.57;;;16.13;;
30247;SDS011;17063;50.892;4.702;2023-02-15T12:36:10;33.77;;;16.07;;
30247;SDS011;17063;50.892;4.702;2023-02-15T12:44:28;37.83;;;17.30;;
30247;SDS011;17063;50.892;4.702;2023-02-15T12:47:18;37.57;;;16.53;;
30247;SDS011;17063;50.892;4.702;2023-02-15T12:50:04;39.13;;;16.70;;
30247;SDS011;17063;50.892;4.702;2023-02-15T12:52:48;36.37;;;15.77;;
30247;SDS011;17063;50.892;4.702;2023-02-15T12:55:35;39.27;;;16.53;;
30247;SDS011;17063;50.892;4.702;2023-02-15T12:58:20;34.17;;;15.53;;
30247;SDS011;17063;50.892;4.702;2023-02-15T13:04:20;37.17;;;17.70;;
30247;SDS011;17063;50.892;4.702;2023-02-15T13:07:14;37.03;;;16.40;;
30247;SDS011;17063;50.892;4.702;2023-02-15T13:09:49;39.30;;;17.67;;
30247;SDS011;17063;50.892;4.702;2023-02-15T13:12:21;35.30;;;17.10;;
30247;SDS011;17063;50.892;4.702;2023-02-15T13:14:56;35.03;;;17.20;;
30247;SDS011;17063;50.892;4.702;2023-02-15T13:17:34;37.53;;;17.17;;
30247;SDS011;17063;50.892;4.702;2023-02-15T13:20:16;33.77;;;16.27;;
30247;SDS011;17063;50.892;4.702;2023-02-15T13:22:47;40.80;;;17.67;;
30247;SDS011;17063;50.892;4.702;2023-02-15T13:25:21;31.80;;;15.90;;
30247;SDS011;17063;50.892;4.702;2023-02-15T13:28:00;30.67;;;15.70;;
30247;SDS011;17063;50.892;4.702;2023-02-15T13:30:49;37.90;;;17.77;;
30247;SDS011;17063;50.892;4.702;2023-02-15T13:33:34;32.97;;;16.27;;
30247;SDS011;17063;50.892;4.702;2023-02-15T13:45:14;37.47;;;17.17;;
30247;SDS011;17063;50.892;4.702;2023-02-15T13:48:08;34.30;;;16.23;;
30247;SDS011;17063;50.892;4.702;2023-02-15T13:56:02;37.23;;;17.13;;
30247;SDS011;17063;50.892;4.702;2023-02-15T13:58:54;34.73;;;17.17;;
30247;SDS011;17063;50.892;4.702;2023-02-15T14:01:31;36.87;;;17.13;;
30247;SDS011;17063;50.892;4.702;2023-02-15T14:07:15;34.77;;;17.37;;
30247;SDS011;17063;50.892;4.702;2023-02-15T14:09:59;33.77;;;17.33;;
30247;SDS011;17063;50.892;4.702;2023-02-15T14:15:21;35.60;;;17.07;;
30247;SDS011;17063;50.892;4.702;2023-02-15T14:29:41;34.40;;;17.27;;
30247;SDS011;17063;50.892;4.702;2023-02-15T14:32:25;33.77;;;16.83;;
30247;SDS011;17063;50.892;4.702;2023-02-15T14:35:08;33.87;;;17.80;;
30247;SDS011;17063;50.892;4.702;2023-02-15T14:37:42;40.50;;;17.93;;
30247;SDS011;17063;50.892;4.702;2023-02-15T14:49:27;33.87;;;17.97;;
30247;SDS011;17063;50.892;4.702;2023-02-15T14:51:58;39.13;;;17.97;;
30247;SDS011;17063;50.892;4.702;2023-02-15T15:02:29;37.37;;;18.07;;
30247;SDS011;17063;50.892;4.702;2023-02-15T15:05:24;37.60;;;18.97;;
30247;SDS011;17063;50.892;4.702;2023-02-15T15:08:01;36.20;;;17.97;;
30247;SDS011;17063;50.892;4.702;2023-02-15T15:10:40;34.73;;;18.03;;
30247;SDS011;17063;50.892;4.702;2023-02-15T15:18:50;38.70;;;18.33;;
30247;SDS011;17063;50.892;4.702;2023-02-15T15:45:14;32.60;;;17.23;;
30247;SDS011;17063;50.892;4.702;2023-02-15T15:50:35;37.17;;;17.27;;
30247;SDS011;17063;50.892;4.702;2023-02-15T15:53:07;41.53;;;18.63;;
30247;SDS011;17063;50.892;4.702;2023-02-15T15:55:46;42.13;;;17.87;;
30247;SDS011;17063;50.892;4.702;2023-02-15T15:58:18;39.23;;;18.47;;
30247;SDS011;17063;50.892;4.702;2023-02-15T16:00:49;38.43;;;18.17;;
30247;SDS011;17063;50.892;4.702;2023-02-15T16:03:22;40.93;;;18.03;;
30247;SDS011;17063;50.892;4.702;2023-02-15T16:06:32;41.37;;;18.27;;
30247;SDS011;17063;50.892;4.702;2023-02-15T16:09:55;40.87;;;18.00;;
30247;SDS011;17063;50.892;4.702;2023-02-15T16:13:04;40.77;;;18.07;;
30247;SDS011;17063;50.892;4.702;2023-02-15T16:15:50;38.27;;;17.63;;
30247;SDS011;17063;50.892;4.702;2023-02-15T16:18:21;37.40;;;18.23;;
30247;SDS011;17063;50.892;4.702;2023-02-15T16:20:55;38.43;;;17.77;;
30247;SDS011;17063;50.892;4.702;2023-02-15T16:28:37;37.67;;;19.07;;
30247;SDS011;17063;50.892;4.702;2023-02-15T16:31:14;36.00;;;18.00;;
30247;SDS011;17063;50.892;4.702;2023-02-15T16:34:07;36.93;;;18.20;;
30247;SDS011;17063;50.892;4.702;2023-02-15T16:36:49;41.57;;;20.30;;
30247;SDS011;17063;50.892;4.702;2023-02-15T16:39:30;38.13;;;18.93;;
30247;SDS011;17063;50.892;4.702;2023-02-15T16:42:24;39.10;;;19.03;;
30247;SDS011;17063;50.892;4.702;2023-02-15T16:45:16;39.57;;;19.23;;
30247;SDS011;17063;50.892;4.702;2023-02-15T16:47:48;41.73;;;19.77;;
30247;SDS011;17063;50.892;4.702;2023-02-15T16:50:33;41.83;;;20.77;;
30247;SDS011;17063;50.892;4.702;2023-02-15T16:56:00;44.07;;;19.60;;
30247;SDS011;17063;50.892;4.702;2023-02-15T16:58:36;45.50;;;21.40;;
30247;SDS011;17063;50.892;4.702;2023-02-15T17:01:12;43.97;;;21.77;;
30247;SDS011;17063;50.892;4.702;2023-02-15T17:03:44;51.13;;;20.37;;
30247;SDS011;17063;50.892;4.702;2023-02-15T17:06:27;41.47;;;18.93;;
30247;SDS011;17063;50.892;4.702;2023-02-15T17:09:16;44.23;;;20.20;;
30247;SDS011;17063;50.892;4.702;2023-02-15T17:12:10;49.43;;;21.53;;
30247;SDS011;17063;50.892;4.702;2023-02-15T17:18:40;44.70;;;21.00;;
30247;SDS011;17063;50.892;4.702;2023-02-15T17:21:48;41.30;;;20.83;;
30247;SDS011;17063;50.892;4.702;2023-02-15T17:24:17;42.30;;;21.10;;
30247;SDS011;17063;50.892;4.702;2023-02-15T17:26:50;45.63;;;22.50;;
30247;SDS011;17063;50.892;4.702;2023-02-15T17:29:44;48.13;;;22.37;;
30247;SDS011;17063;50.892;4.702;2023-02-15T17:32:19;48.53;;;22.23;;
30247;SDS011;17063;50.892;4.702;2023-02-15T17:35:23;46.67;;;21.97;;
30247;SDS011;17063;50.892;4.702;2023-02-15T17:38:17;43.03;;;21.83;;
30247;SDS011;17063;50.892;4.702;2023-02-15T17:41:13;53.93;;;23.33;;
30247;SDS011;17063;50.892;4.702;2023-02-15T17:43:41;46.30;;;23.27;;
30247;SDS011;17063;50.892;4.702;2023-02-15T17:46:11;50.87;;;24.13;;
30247;SDS011;17063;50.892;4.702;2023-02-15T17:48:51;48.13;;;22.20;;
30247;SDS011;17063;50.892;4.702;2023-02-15T17:51:20;46.27;;;23.40;;
30247;SDS011;17063;50.892;4.702;2023-02-15T17:53:47;46.97;;;22.47;;
30247;SDS011;17063;50.892;4.702;2023-02-15T17:56:43;50.20;;;23.47;;
30247;SDS011;17063;50.892;4.702;2023-02-15T17:59:11;44.73;;;22.77;;
30247;SDS011;17063;50.892;4.702;2023-02-15T18:01:45;43.90;;;22.93;;
30247;SDS011;17063;50.892;4.702;2023-02-15T18:04:38;46.20;;;22.93;;
30247;SDS011;17063;50.892;4.702;2023-02-15T18:07:36;47.33;;;22.57;;
30247;SDS011;17063;50.892;4.702;2023-02-15T18:10:26;46.07;;;23.03;;
30247;SDS011;17063;50.892;4.702;2023-02-15T18:13:21;47.03;;;21.83;;
30247;SDS011;17063;50.892;4.702;2023-02-15T18:16:16;47.90;;;22.63;;
30247;SDS011;17063;50.892;4.702;2023-02-15T18:19:10;43.77;;;22.17;;
30247;SDS011;17063;50.892;4.702;2023-02-15T18:21:48;41.93;;;22.23;;
30247;SDS011;17063;50.892;4.702;2023-02-15T18:24:19;41.17;;;21.80;;
30247;SDS011;17063;50.892;4.702;2023-02-15T18:26:53;45.10;;;22.40;;
30247;SDS011;17063;50.892;4.702;2023-02-15T18:29:31;45.67;;;22.17;;
30247;SDS011;17063;50.892;4.702;2023-02-15T18:32:03;46.07;;;22.57;;